sensor_id;sensor_type;location;lat;lon;timestamp;P1;durP1;ratioP1;P2;durP2;ratioP2
28431;SDS011;15664;51.302;7.744;2023-03-01T00:01:48;11.47;;;4.13;;
28431;SDS011;15664;51.302;7.744;2023-03-01T00:04:14;12.43;;;4.27;;
28431;SDS011;15664;51.302;7.744;2023-03-01T00:06:39;10.05;;;4.10;;
28431;SDS011;15664;51.302;7.744;2023-03-01T00:09:07;10.60;;;4.43;;
28431;SDS011;15664;51.302;7.744;2023-03-01T00:11:33;13.02;;;4.85;;
28431;SDS011;15664;51.302;7.744;2023-03-01T00:14:01;13.07;;;4.53;;
28431;SDS011;15664;51.302;7.744;2023-03-01T00:16:30;13.18;;;4.57;;
28431;SDS011;15664;51.302;7.744;2023-03-01T00:18:58;10.70;;;4.53;;
28431;SDS011;15664;51.302;7.744;2023-03-01T00:21:24;13.13;;;4.90;;
28431;SDS011;15664;51.302;7.744;2023-03-01T00:23:50;12.35;;;4.00;;
28431;SDS011;15664;51.302;7.744;2023-03-01T00:26:17;12.20;;;4.85;;
28431;SDS011;15664;51.302;7.744;2023-03-01T00:28:44;10.93;;;4.68;;
28431;SDS011;15664;51.302;7.744;2023-03-01T00:31:14;10.32;;;4.60;;
28431;SDS011;15664;51.302;7.744;2023-03-01T00:33:42;14.15;;;5.47;;
28431;SDS011;15664;51.302;7.744;2023-03-01T00:36:08;10.93;;;4.22;;
28431;SDS011;15664;51.302;7.744;2023-03-01T00:38:35;12.23;;;4.47;;
28431;SDS011;15664;51.302;7.744;2023-03-01T00:41:02;13.20;;;5.43;;
28431;SDS011;15664;51.302;7.744;2023-03-01T00:43:30;14.25;;;4.40;;
28431;SDS011;15664;51.302;7.744;2023-03-01T00:45:56;13.27;;;4.50;;
28431;SDS011;15664;51.302;7.744;2023-03-01T00:48:25;13.60;;;4.97;;
28431;SDS011;15664;51.302;7.744;2023-03-01T00:50:51;13.55;;;5.22;;
28431;SDS011;15664;51.302;7.744;2023-03-01T00:53:17;11.83;;;4.53;;
28431;SDS011;15664;51.302;7.744;2023-03-01T00:55:42;13.00;;;4.63;;
28431;SDS011;15664;51.302;7.744;2023-03-01T00:58:08;15.00;;;5.23;;
28431;SDS011;15664;51.302;7.744;2023-03-01T01:00:33;12.37;;;4.80;;
28431;SDS011;15664;51.302;7.744;2023-03-01T01:02:59;13.73;;;4.95;;
28431;SDS011;15664;51.302;7.744;2023-03-01T01:05:25;13.50;;;5.13;;
28431;SDS011;15664;51.302;7.744;2023-03-01T01:07:52;14.13;;;4.97;;
28431;SDS011;15664;51.302;7.744;2023-03-01T01:10:17;11.40;;;3.60;;
28431;SDS011;15664;51.302;7.744;2023-03-01T01:12:44;11.37;;;4.30;;
28431;SDS011;15664;51.302;7.744;2023-03-01T01:15:10;14.15;;;4.15;;
28431;SDS011;15664;51.302;7.744;2023-03-01T01:17:39;11.93;;;4.30;;
28431;SDS011;15664;51.302;7.744;2023-03-01T01:20:05;12.73;;;4.55;;
28431;SDS011;15664;51.302;7.744;2023-03-01T01:22:32;11.82;;;4.80;;
28431;SDS011;15664;51.302;7.744;2023-03-01T01:24:57;11.93;;;4.47;;
28431;SDS011;15664;51.302;7.744;2023-03-01T01:27:23;9.95;;;4.10;;
28431;SDS011;15664;51.302;7.744;2023-03-01T01:29:49;14.43;;;4.97;;
28431;SDS011;15664;51.302;7.744;2023-03-01T01:32:14;11.13;;;4.67;;
28431;SDS011;15664;51.302;7.744;2023-03-01T01:34:40;13.37;;;5.17;;
28431;SDS011;15664;51.302;7.744;2023-03-01T01:37:05;15.07;;;5.30;;
28431;SDS011;15664;51.302;7.744;2023-03-01T01:39:34;12.53;;;4.60;;
28431;SDS011;15664;51.302;7.744;2023-03-01T01:42:00;12.05;;;4.00;;
28431;SDS011;15664;51.302;7.744;2023-03-01T01:44:27;14.30;;;4.97;;
28431;SDS011;15664;51.302;7.744;2023-03-01T01:47:01;13.68;;;5.22;;
28431;SDS011;15664;51.302;7.744;2023-03-01T01:49:37;14.75;;;5.15;;
28431;SDS011;15664;51.302;7.744;2023-03-01T01:52:20;13.85;;;5.05;;
28431;SDS011;15664;51.302;7.744;2023-03-01T01:57:47;14.37;;;5.30;;
28431;SDS011;15664;51.302;7.744;2023-03-01T02:00:16;13.13;;;4.45;;
28431;SDS011;15664;51.302;7.744;2023-03-01T02:02:46;16.35;;;5.45;;
28431;SDS011;15664;51.302;7.744;2023-03-01T02:05:15;15.82;;;5.13;;
28431;SDS011;15664;51.302;7.744;2023-03-01T02:07:49;12.17;;;4.93;;
28431;SDS011;15664;51.302;7.744;2023-03-01T02:10:18;12.93;;;4.93;;
28431;SDS011;15664;51.302;7.744;2023-03-01T02:12:46;14.07;;;5.53;;
28431;SDS011;15664;51.302;7.744;2023-03-01T02:15:12;11.15;;;4.57;;
28431;SDS011;15664;51.302;7.744;2023-03-01T02:17:38;13.97;;;4.60;;
28431;SDS011;15664;51.302;7.744;2023-03-01T02:23:05;11.90;;;4.22;;
28431;SDS011;15664;51.302;7.744;2023-03-01T02:28:20;15.77;;;4.90;;
28431;SDS011;15664;51.302;7.744;2023-03-01T02:30:48;13.32;;;5.40;;
28431;SDS011;15664;51.302;7.744;2023-03-01T02:33:36;14.18;;;4.88;;
28431;SDS011;15664;51.302;7.744;2023-03-01T02:36:05;13.07;;;4.63;;
28431;SDS011;15664;51.302;7.744;2023-03-01T02:38:34;15.13;;;5.18;;
28431;SDS011;15664;51.302;7.744;2023-03-01T02:41:01;15.45;;;5.57;;
28431;SDS011;15664;51.302;7.744;2023-03-01T02:43:29;14.52;;;5.60;;
28431;SDS011;15664;51.302;7.744;2023-03-01T02:45:57;14.20;;;5.07;;
28431;SDS011;15664;51.302;7.744;2023-03-01T02:48:27;16.45;;;5.68;;
28431;SDS011;15664;51.302;7.744;2023-03-01T02:53:23;14.18;;;4.93;;
28431;SDS011;15664;51.302;7.744;2023-03-01T02:56:00;13.95;;;4.68;;
28431;SDS011;15664;51.302;7.744;2023-03-01T02:58:26;16.27;;;5.67;;
28431;SDS011;15664;51.302;7.744;2023-03-01T03:00:51;14.30;;;5.40;;
28431;SDS011;15664;51.302;7.744;2023-03-01T03:03:19;15.88;;;6.20;;
28431;SDS011;15664;51.302;7.744;2023-03-01T03:05:46;17.93;;;5.43;;
28431;SDS011;15664;51.302;7.744;2023-03-01T03:08:11;16.13;;;5.32;;
28431;SDS011;15664;51.302;7.744;2023-03-01T03:10:39;14.23;;;5.25;;
28431;SDS011;15664;51.302;7.744;2023-03-01T03:13:06;13.20;;;4.33;;
28431;SDS011;15664;51.302;7.744;2023-03-01T03:15:34;15.02;;;5.75;;
28431;SDS011;15664;51.302;7.744;2023-03-01T03:18:05;13.63;;;4.97;;
28431;SDS011;15664;51.302;7.744;2023-03-01T03:20:34;15.97;;;6.10;;
28431;SDS011;15664;51.302;7.744;2023-03-01T03:22:59;16.65;;;5.57;;
28431;SDS011;15664;51.302;7.744;2023-03-01T03:25:26;16.80;;;5.80;;
28431;SDS011;15664;51.302;7.744;2023-03-01T03:27:53;16.63;;;5.10;;
28431;SDS011;15664;51.302;7.744;2023-03-01T03:30:22;12.82;;;5.03;;
28431;SDS011;15664;51.302;7.744;2023-03-01T03:32:56;15.20;;;4.55;;
28431;SDS011;15664;51.302;7.744;2023-03-01T03:35:24;13.88;;;5.15;;
28431;SDS011;15664;51.302;7.744;2023-03-01T03:37:53;14.02;;;4.72;;
28431;SDS011;15664;51.302;7.744;2023-03-01T03:40:29;14.88;;;4.75;;
28431;SDS011;15664;51.302;7.744;2023-03-01T03:42:57;13.30;;;5.27;;
28431;SDS011;15664;51.302;7.744;2023-03-01T03:45:22;13.55;;;5.00;;
28431;SDS011;15664;51.302;7.744;2023-03-01T03:47:48;16.67;;;5.03;;
28431;SDS011;15664;51.302;7.744;2023-03-01T03:50:14;16.93;;;7.03;;
28431;SDS011;15664;51.302;7.744;2023-03-01T03:52:41;14.43;;;5.90;;
28431;SDS011;15664;51.302;7.744;2023-03-01T03:55:08;15.93;;;5.70;;
28431;SDS011;15664;51.302;7.744;2023-03-01T03:57:36;15.07;;;5.90;;
28431;SDS011;15664;51.302;7.744;2023-03-01T04:00:02;16.17;;;5.57;;
28431;SDS011;15664;51.302;7.744;2023-03-01T04:02:37;17.02;;;5.20;;
28431;SDS011;15664;51.302;7.744;2023-03-01T04:05:03;17.60;;;5.70;;
28431;SDS011;15664;51.302;7.744;2023-03-01T04:07:28;18.67;;;5.93;;
28431;SDS011;15664;51.302;7.744;2023-03-01T04:09:54;17.23;;;6.07;;
28431;SDS011;15664;51.302;7.744;2023-03-01T04:12:19;15.70;;;5.23;;
28431;SDS011;15664;51.302;7.744;2023-03-01T04:14:48;19.05;;;6.22;;
28431;SDS011;15664;51.302;7.744;2023-03-01T04:17:13;19.07;;;6.30;;
28431;SDS011;15664;51.302;7.744;2023-03-01T04:19:39;19.83;;;5.97;;
28431;SDS011;15664;51.302;7.744;2023-03-01T04:22:04;15.23;;;5.78;;
28431;SDS011;15664;51.302;7.744;2023-03-01T04:24:34;15.95;;;5.47;;
28431;SDS011;15664;51.302;7.744;2023-03-01T04:27:00;14.18;;;5.47;;
28431;SDS011;15664;51.302;7.744;2023-03-01T04:29:26;18.13;;;6.07;;
28431;SDS011;15664;51.302;7.744;2023-03-01T04:31:52;14.00;;;5.57;;
28431;SDS011;15664;51.302;7.744;2023-03-01T04:34:18;20.17;;;6.13;;
28431;SDS011;15664;51.302;7.744;2023-03-01T04:36:44;14.40;;;5.63;;
28431;SDS011;15664;51.302;7.744;2023-03-01T04:39:09;16.90;;;6.22;;
28431;SDS011;15664;51.302;7.744;2023-03-01T04:41:39;13.27;;;5.00;;
28431;SDS011;15664;51.302;7.744;2023-03-01T04:44:05;18.52;;;6.22;;
28431;SDS011;15664;51.302;7.744;2023-03-01T04:46:32;18.13;;;6.20;;
28431;SDS011;15664;51.302;7.744;2023-03-01T04:48:57;14.33;;;4.93;;
28431;SDS011;15664;51.302;7.744;2023-03-01T04:51:23;13.97;;;5.73;;
28431;SDS011;15664;51.302;7.744;2023-03-01T04:53:49;11.75;;;4.68;;
28431;SDS011;15664;51.302;7.744;2023-03-01T04:56:15;16.27;;;5.60;;
28431;SDS011;15664;51.302;7.744;2023-03-01T04:58:43;18.07;;;6.17;;
28431;SDS011;15664;51.302;7.744;2023-03-01T05:01:13;13.10;;;5.57;;
28431;SDS011;15664;51.302;7.744;2023-03-01T05:03:45;16.25;;;5.60;;
28431;SDS011;15664;51.302;7.744;2023-03-01T05:06:12;14.70;;;5.30;;
28431;SDS011;15664;51.302;7.744;2023-03-01T05:08:39;15.35;;;5.93;;
28431;SDS011;15664;51.302;7.744;2023-03-01T05:11:06;17.33;;;6.10;;
28431;SDS011;15664;51.302;7.744;2023-03-01T05:13:34;10.88;;;4.32;;
28431;SDS011;15664;51.302;7.744;2023-03-01T05:16:01;18.88;;;6.53;;
28431;SDS011;15664;51.302;7.744;2023-03-01T05:18:30;20.13;;;6.13;;
28431;SDS011;15664;51.302;7.744;2023-03-01T05:21:02;20.07;;;6.43;;
28431;SDS011;15664;51.302;7.744;2023-03-01T05:23:31;18.95;;;6.30;;
28431;SDS011;15664;51.302;7.744;2023-03-01T05:25:57;14.43;;;5.75;;
28431;SDS011;15664;51.302;7.744;2023-03-01T05:28:25;17.83;;;6.90;;
28431;SDS011;15664;51.302;7.744;2023-03-01T05:30:51;18.25;;;6.63;;
28431;SDS011;15664;51.302;7.744;2023-03-01T05:33:17;21.80;;;6.63;;
28431;SDS011;15664;51.302;7.744;2023-03-01T05:35:44;20.20;;;6.60;;
28431;SDS011;15664;51.302;7.744;2023-03-01T05:38:10;18.98;;;6.50;;
28431;SDS011;15664;51.302;7.744;2023-03-01T05:40:38;19.15;;;7.38;;
28431;SDS011;15664;51.302;7.744;2023-03-01T05:43:04;15.88;;;5.88;;
28431;SDS011;15664;51.302;7.744;2023-03-01T05:45:30;17.77;;;6.45;;
28431;SDS011;15664;51.302;7.744;2023-03-01T05:47:57;14.25;;;5.40;;
28431;SDS011;15664;51.302;7.744;2023-03-01T05:50:25;17.20;;;6.30;;
28431;SDS011;15664;51.302;7.744;2023-03-01T05:52:56;14.00;;;6.22;;
28431;SDS011;15664;51.302;7.744;2023-03-01T05:55:26;16.80;;;6.10;;
28431;SDS011;15664;51.302;7.744;2023-03-01T05:57:53;15.70;;;6.00;;
28431;SDS011;15664;51.302;7.744;2023-03-01T06:00:19;19.87;;;6.57;;
28431;SDS011;15664;51.302;7.744;2023-03-01T06:02:49;18.80;;;5.65;;
28431;SDS011;15664;51.302;7.744;2023-03-01T06:05:17;18.88;;;6.65;;
28431;SDS011;15664;51.302;7.744;2023-03-01T06:07:43;15.97;;;6.70;;
28431;SDS011;15664;51.302;7.744;2023-03-01T06:10:09;15.90;;;6.05;;
28431;SDS011;15664;51.302;7.744;2023-03-01T06:12:37;18.77;;;7.57;;
28431;SDS011;15664;51.302;7.744;2023-03-01T06:15:05;18.17;;;6.50;;
28431;SDS011;15664;51.302;7.744;2023-03-01T06:17:32;18.80;;;6.93;;
28431;SDS011;15664;51.302;7.744;2023-03-01T06:20:02;21.17;;;7.57;;
28431;SDS011;15664;51.302;7.744;2023-03-01T06:22:29;21.70;;;7.15;;
28431;SDS011;15664;51.302;7.744;2023-03-01T06:24:54;19.83;;;6.90;;
28431;SDS011;15664;51.302;7.744;2023-03-01T06:27:20;16.17;;;6.30;;
28431;SDS011;15664;51.302;7.744;2023-03-01T06:29:45;20.03;;;7.00;;
28431;SDS011;15664;51.302;7.744;2023-03-01T06:32:10;17.23;;;6.38;;
28431;SDS011;15664;51.302;7.744;2023-03-01T06:34:36;20.13;;;6.35;;
28431;SDS011;15664;51.302;7.744;2023-03-01T06:37:01;23.00;;;7.20;;
28431;SDS011;15664;51.302;7.744;2023-03-01T06:39:30;17.02;;;6.28;;
28431;SDS011;15664;51.302;7.744;2023-03-01T06:41:57;16.58;;;6.40;;
28431;SDS011;15664;51.302;7.744;2023-03-01T06:44:22;14.95;;;5.43;;
28431;SDS011;15664;51.302;7.744;2023-03-01T06:46:48;14.80;;;6.07;;
28431;SDS011;15664;51.302;7.744;2023-03-01T06:49:14;18.15;;;6.70;;
28431;SDS011;15664;51.302;7.744;2023-03-01T06:51:41;17.70;;;6.22;;
28431;SDS011;15664;51.302;7.744;2023-03-01T06:54:06;19.67;;;5.85;;
28431;SDS011;15664;51.302;7.744;2023-03-01T06:56:32;20.73;;;6.90;;
28431;SDS011;15664;51.302;7.744;2023-03-01T06:58:58;21.25;;;7.47;;
28431;SDS011;15664;51.302;7.744;2023-03-01T07:01:24;20.70;;;6.75;;
28431;SDS011;15664;51.302;7.744;2023-03-01T07:03:50;16.08;;;5.65;;
28431;SDS011;15664;51.302;7.744;2023-03-01T07:06:15;17.67;;;6.27;;
28431;SDS011;15664;51.302;7.744;2023-03-01T07:08:43;16.45;;;6.03;;
28431;SDS011;15664;51.302;7.744;2023-03-01T07:11:08;17.52;;;7.45;;
28431;SDS011;15664;51.302;7.744;2023-03-01T07:13:34;19.77;;;6.90;;
28431;SDS011;15664;51.302;7.744;2023-03-01T07:15:59;14.80;;;6.20;;
28431;SDS011;15664;51.302;7.744;2023-03-01T07:18:25;17.52;;;6.60;;
28431;SDS011;15664;51.302;7.744;2023-03-01T07:20:51;17.80;;;7.23;;
28431;SDS011;15664;51.302;7.744;2023-03-01T07:23:16;18.45;;;6.22;;
28431;SDS011;15664;51.302;7.744;2023-03-01T07:25:42;16.97;;;6.93;;
28431;SDS011;15664;51.302;7.744;2023-03-01T07:28:08;21.53;;;6.97;;
28431;SDS011;15664;51.302;7.744;2023-03-01T07:30:33;18.13;;;6.70;;
28431;SDS011;15664;51.302;7.744;2023-03-01T07:32:59;20.60;;;6.93;;
28431;SDS011;15664;51.302;7.744;2023-03-01T07:35:25;15.50;;;5.33;;
28431;SDS011;15664;51.302;7.744;2023-03-01T07:37:51;19.40;;;7.03;;
28431;SDS011;15664;51.302;7.744;2023-03-01T07:40:17;21.40;;;7.13;;
28431;SDS011;15664;51.302;7.744;2023-03-01T07:42:42;18.42;;;6.82;;
28431;SDS011;15664;51.302;7.744;2023-03-01T07:45:08;14.73;;;6.07;;
28431;SDS011;15664;51.302;7.744;2023-03-01T07:47:34;15.52;;;6.47;;
28431;SDS011;15664;51.302;7.744;2023-03-01T07:50:00;15.33;;;7.07;;
28431;SDS011;15664;51.302;7.744;2023-03-01T07:52:26;18.25;;;7.25;;
28431;SDS011;15664;51.302;7.744;2023-03-01T07:54:51;18.30;;;6.57;;
28431;SDS011;15664;51.302;7.744;2023-03-01T07:57:17;16.13;;;6.57;;
28431;SDS011;15664;51.302;7.744;2023-03-01T07:59:42;14.83;;;6.10;;
28431;SDS011;15664;51.302;7.744;2023-03-01T08:02:08;15.60;;;6.70;;
28431;SDS011;15664;51.302;7.744;2023-03-01T08:04:35;15.80;;;6.43;;
28431;SDS011;15664;51.302;7.744;2023-03-01T08:07:00;20.27;;;6.77;;
28431;SDS011;15664;51.302;7.744;2023-03-01T08:09:26;14.18;;;6.00;;
28431;SDS011;15664;51.302;7.744;2023-03-01T08:11:51;16.50;;;6.70;;
28431;SDS011;15664;51.302;7.744;2023-03-01T08:14:17;16.03;;;6.17;;
28431;SDS011;15664;51.302;7.744;2023-03-01T08:16:42;13.37;;;5.97;;
28431;SDS011;15664;51.302;7.744;2023-03-01T08:19:09;16.25;;;6.50;;
28431;SDS011;15664;51.302;7.744;2023-03-01T08:21:36;14.48;;;6.40;;
28431;SDS011;15664;51.302;7.744;2023-03-01T08:24:05;15.30;;;6.70;;
28431;SDS011;15664;51.302;7.744;2023-03-01T08:26:32;16.40;;;5.97;;
28431;SDS011;15664;51.302;7.744;2023-03-01T08:28:59;12.73;;;6.05;;
28431;SDS011;15664;51.302;7.744;2023-03-01T08:31:26;18.25;;;6.75;;
28431;SDS011;15664;51.302;7.744;2023-03-01T08:33:54;15.30;;;6.43;;
28431;SDS011;15664;51.302;7.744;2023-03-01T08:36:26;16.55;;;6.55;;
28431;SDS011;15664;51.302;7.744;2023-03-01T08:38:54;14.93;;;6.63;;
28431;SDS011;15664;51.302;7.744;2023-03-01T08:41:20;14.68;;;6.45;;
28431;SDS011;15664;51.302;7.744;2023-03-01T08:43:45;14.60;;;6.33;;
28431;SDS011;15664;51.302;7.744;2023-03-01T08:46:11;14.55;;;6.60;;
28431;SDS011;15664;51.302;7.744;2023-03-01T08:48:38;15.52;;;6.60;;
28431;SDS011;15664;51.302;7.744;2023-03-01T08:51:07;13.50;;;6.40;;
28431;SDS011;15664;51.302;7.744;2023-03-01T08:53:34;15.48;;;6.43;;
28431;SDS011;15664;51.302;7.744;2023-03-01T08:56:00;15.83;;;6.83;;
28431;SDS011;15664;51.302;7.744;2023-03-01T08:58:27;15.90;;;7.00;;
28431;SDS011;15664;51.302;7.744;2023-03-01T09:00:53;17.65;;;6.43;;
28431;SDS011;15664;51.302;7.744;2023-03-01T09:03:18;15.50;;;6.03;;
28431;SDS011;15664;51.302;7.744;2023-03-01T09:05:44;14.63;;;6.17;;
28431;SDS011;15664;51.302;7.744;2023-03-01T09:08:10;16.48;;;6.43;;
28431;SDS011;15664;51.302;7.744;2023-03-01T09:10:37;13.47;;;6.13;;
28431;SDS011;15664;51.302;7.744;2023-03-01T09:13:04;15.10;;;6.65;;
28431;SDS011;15664;51.302;7.744;2023-03-01T09:15:29;12.77;;;5.90;;
28431;SDS011;15664;51.302;7.744;2023-03-01T09:17:55;13.43;;;6.03;;
28431;SDS011;15664;51.302;7.744;2023-03-01T09:20:20;16.97;;;6.40;;
28431;SDS011;15664;51.302;7.744;2023-03-01T09:22:46;14.60;;;6.13;;
28431;SDS011;15664;51.302;7.744;2023-03-01T09:25:12;17.35;;;6.72;;
28431;SDS011;15664;51.302;7.744;2023-03-01T09:27:37;16.03;;;6.10;;
28431;SDS011;15664;51.302;7.744;2023-03-01T09:30:03;13.70;;;6.17;;
28431;SDS011;15664;51.302;7.744;2023-03-01T09:32:32;14.70;;;6.40;;
28431;SDS011;15664;51.302;7.744;2023-03-01T09:34:58;14.45;;;6.78;;
28431;SDS011;15664;51.302;7.744;2023-03-01T09:37:28;15.87;;;6.77;;
28431;SDS011;15664;51.302;7.744;2023-03-01T09:39:54;12.27;;;5.70;;
28431;SDS011;15664;51.302;7.744;2023-03-01T09:42:19;13.30;;;6.10;;
28431;SDS011;15664;51.302;7.744;2023-03-01T09:44:50;13.02;;;6.00;;
28431;SDS011;15664;51.302;7.744;2023-03-01T09:47:33;15.05;;;6.35;;
28431;SDS011;15664;51.302;7.744;2023-03-01T09:50:15;14.23;;;6.35;;
28431;SDS011;15664;51.302;7.744;2023-03-01T09:52:46;13.10;;;5.77;;
28431;SDS011;15664;51.302;7.744;2023-03-01T09:55:17;13.40;;;6.03;;
28431;SDS011;15664;51.302;7.744;2023-03-01T09:58:17;15.95;;;6.35;;
28431;SDS011;15664;51.302;7.744;2023-03-01T10:00:54;15.13;;;6.18;;
28431;SDS011;15664;51.302;7.744;2023-03-01T10:08:58;16.35;;;6.78;;
28431;SDS011;15664;51.302;7.744;2023-03-01T10:11:35;13.98;;;6.32;;
28431;SDS011;15664;51.302;7.744;2023-03-01T10:17:01;13.77;;;5.72;;
28431;SDS011;15664;51.302;7.744;2023-03-01T10:19:31;15.13;;;5.87;;
28431;SDS011;15664;51.302;7.744;2023-03-01T10:22:10;13.02;;;5.93;;
28431;SDS011;15664;51.302;7.744;2023-03-01T10:24:40;13.45;;;6.75;;
28431;SDS011;15664;51.302;7.744;2023-03-01T10:27:07;14.33;;;6.47;;
28431;SDS011;15664;51.302;7.744;2023-03-01T10:32:41;15.48;;;6.57;;
28431;SDS011;15664;51.302;7.744;2023-03-01T10:35:24;13.32;;;6.45;;
28431;SDS011;15664;51.302;7.744;2023-03-01T10:38:08;13.77;;;6.40;;
28431;SDS011;15664;51.302;7.744;2023-03-01T10:40:35;12.60;;;6.40;;
28431;SDS011;15664;51.302;7.744;2023-03-01T10:43:14;12.45;;;6.28;;
28431;SDS011;15664;51.302;7.744;2023-03-01T10:45:39;21.17;;;5.83;;
28431;SDS011;15664;51.302;7.744;2023-03-01T10:48:15;12.83;;;6.13;;
28431;SDS011;15664;51.302;7.744;2023-03-01T10:50:49;15.02;;;6.82;;
28431;SDS011;15664;51.302;7.744;2023-03-01T10:53:20;16.08;;;6.38;;
28431;SDS011;15664;51.302;7.744;2023-03-01T10:56:05;14.55;;;6.35;;
28431;SDS011;15664;51.302;7.744;2023-03-01T10:58:32;12.95;;;5.93;;
28431;SDS011;15664;51.302;7.744;2023-03-01T11:01:03;10.67;;;5.83;;
28431;SDS011;15664;51.302;7.744;2023-03-01T11:03:35;13.70;;;6.13;;
28431;SDS011;15664;51.302;7.744;2023-03-01T11:08:43;13.07;;;6.15;;
28431;SDS011;15664;51.302;7.744;2023-03-01T11:11:18;14.05;;;6.32;;
28431;SDS011;15664;51.302;7.744;2023-03-01T11:13:57;15.50;;;5.77;;
28431;SDS011;15664;51.302;7.744;2023-03-01T11:16:34;11.75;;;5.93;;
28431;SDS011;15664;51.302;7.744;2023-03-01T11:19:07;11.60;;;5.97;;
28431;SDS011;15664;51.302;7.744;2023-03-01T11:27:03;12.13;;;5.50;;
28431;SDS011;15664;51.302;7.744;2023-03-01T11:29:38;11.45;;;5.72;;
28431;SDS011;15664;51.302;7.744;2023-03-01T11:32:08;16.08;;;6.00;;
28431;SDS011;15664;51.302;7.744;2023-03-01T11:34:48;11.90;;;5.68;;
28431;SDS011;15664;51.302;7.744;2023-03-01T11:43:00;12.93;;;5.38;;
28431;SDS011;15664;51.302;7.744;2023-03-01T11:48:32;13.50;;;5.38;;
28431;SDS011;15664;51.302;7.744;2023-03-01T11:51:09;12.40;;;5.70;;
28431;SDS011;15664;51.302;7.744;2023-03-01T11:53:51;11.10;;;5.00;;
28431;SDS011;15664;51.302;7.744;2023-03-01T11:56:41;13.93;;;5.15;;
28431;SDS011;15664;51.302;7.744;2023-03-01T12:13:46;10.98;;;5.97;;
28431;SDS011;15664;51.302;7.744;2023-03-01T12:16:24;10.68;;;5.00;;
28431;SDS011;15664;51.302;7.744;2023-03-01T12:21:47;30.47;;;6.37;;
28431;SDS011;15664;51.302;7.744;2023-03-01T12:27:29;11.90;;;5.50;;
28431;SDS011;15664;51.302;7.744;2023-03-01T12:30:33;12.90;;;5.38;;
28431;SDS011;15664;51.302;7.744;2023-03-01T12:33:10;9.68;;;4.32;;
28431;SDS011;15664;51.302;7.744;2023-03-01T12:36:07;10.07;;;5.10;;
28431;SDS011;15664;51.302;7.744;2023-03-01T12:45:12;10.40;;;4.60;;
28431;SDS011;15664;51.302;7.744;2023-03-01T12:50:38;12.23;;;5.80;;
28431;SDS011;15664;51.302;7.744;2023-03-01T12:53:29;10.13;;;4.97;;
28431;SDS011;15664;51.302;7.744;2023-03-01T12:55:56;16.52;;;5.28;;
28431;SDS011;15664;51.302;7.744;2023-03-01T12:58:33;11.48;;;5.10;;
28431;SDS011;15664;51.302;7.744;2023-03-01T13:01:21;11.88;;;5.57;;
28431;SDS011;15664;51.302;7.744;2023-03-01T13:06:54;11.20;;;5.25;;
28431;SDS011;15664;51.302;7.744;2023-03-01T13:09:32;14.75;;;6.28;;
28431;SDS011;15664;51.302;7.744;2023-03-01T13:12:41;12.20;;;6.05;;
28431;SDS011;15664;51.302;7.744;2023-03-01T13:15:42;10.60;;;5.25;;
28431;SDS011;15664;51.302;7.744;2023-03-01T13:18:03;12.60;;;5.60;;
28431;SDS011;15664;51.302;7.744;2023-03-01T13:23:13;10.52;;;5.25;;
28431;SDS011;15664;51.302;7.744;2023-03-01T13:28:36;13.93;;;4.80;;
28431;SDS011;15664;51.302;7.744;2023-03-01T13:33:43;10.23;;;5.03;;
28431;SDS011;15664;51.302;7.744;2023-03-01T13:36:10;11.60;;;5.25;;
28431;SDS011;15664;51.302;7.744;2023-03-01T13:38:59;11.38;;;5.15;;
28431;SDS011;15664;51.302;7.744;2023-03-01T13:46:48;11.50;;;4.90;;
28431;SDS011;15664;51.302;7.744;2023-03-01T13:49:16;12.85;;;5.43;;
28431;SDS011;15664;51.302;7.744;2023-03-01T13:51:48;12.68;;;4.68;;
28431;SDS011;15664;51.302;7.744;2023-03-01T13:54:15;14.82;;;4.88;;
28431;SDS011;15664;51.302;7.744;2023-03-01T13:56:46;10.33;;;4.57;;
28431;SDS011;15664;51.302;7.744;2023-03-01T13:59:15;12.48;;;4.65;;
28431;SDS011;15664;51.302;7.744;2023-03-01T14:01:43;11.10;;;4.67;;
28431;SDS011;15664;51.302;7.744;2023-03-01T14:09:44;11.93;;;5.40;;
28431;SDS011;15664;51.302;7.744;2023-03-01T14:15:32;14.20;;;5.50;;
28431;SDS011;15664;51.302;7.744;2023-03-01T14:18:07;17.83;;;6.40;;
28431;SDS011;15664;51.302;7.744;2023-03-01T14:20:41;14.05;;;6.10;;
28431;SDS011;15664;51.302;7.744;2023-03-01T14:23:15;12.55;;;5.68;;
28431;SDS011;15664;51.302;7.744;2023-03-01T14:25:48;11.80;;;4.68;;
28431;SDS011;15664;51.302;7.744;2023-03-01T14:28:27;16.03;;;5.57;;
28431;SDS011;15664;51.302;7.744;2023-03-01T14:30:55;10.30;;;4.20;;
28431;SDS011;15664;51.302;7.744;2023-03-01T14:33:33;7.30;;;2.95;;
28431;SDS011;15664;51.302;7.744;2023-03-01T14:36:11;10.93;;;4.80;;
28431;SDS011;15664;51.302;7.744;2023-03-01T14:38:38;14.48;;;4.93;;
28431;SDS011;15664;51.302;7.744;2023-03-01T14:41:10;15.80;;;5.33;;
28431;SDS011;15664;51.302;7.744;2023-03-01T14:43:41;13.55;;;5.18;;
28431;SDS011;15664;51.302;7.744;2023-03-01T14:48:58;13.35;;;4.93;;
28431;SDS011;15664;51.302;7.744;2023-03-01T14:51:28;12.60;;;5.22;;
28431;SDS011;15664;51.302;7.744;2023-03-01T14:53:54;12.63;;;5.77;;
28431;SDS011;15664;51.302;7.744;2023-03-01T14:56:20;13.05;;;4.20;;
28431;SDS011;15664;51.302;7.744;2023-03-01T14:58:46;12.10;;;5.17;;
28431;SDS011;15664;51.302;7.744;2023-03-01T15:01:17;10.85;;;4.70;;
28431;SDS011;15664;51.302;7.744;2023-03-01T15:03:45;12.63;;;4.93;;
28431;SDS011;15664;51.302;7.744;2023-03-01T15:06:18;11.93;;;5.40;;
28431;SDS011;15664;51.302;7.744;2023-03-01T15:08:48;11.13;;;4.97;;
28431;SDS011;15664;51.302;7.744;2023-03-01T15:11:17;13.48;;;5.10;;
28431;SDS011;15664;51.302;7.744;2023-03-01T15:13:50;11.63;;;4.97;;
28431;SDS011;15664;51.302;7.744;2023-03-01T15:16:18;10.98;;;5.03;;
28431;SDS011;15664;51.302;7.744;2023-03-01T15:18:51;10.97;;;4.63;;
28431;SDS011;15664;51.302;7.744;2023-03-01T15:21:20;14.55;;;4.57;;
28431;SDS011;15664;51.302;7.744;2023-03-01T15:23:53;10.95;;;4.38;;
28431;SDS011;15664;51.302;7.744;2023-03-01T15:26:28;11.30;;;4.60;;
28431;SDS011;15664;51.302;7.744;2023-03-01T15:28:55;10.77;;;4.45;;
28431;SDS011;15664;51.302;7.744;2023-03-01T15:31:36;13.13;;;4.60;;
28431;SDS011;15664;51.302;7.744;2023-03-01T15:34:08;12.27;;;4.50;;
28431;SDS011;15664;51.302;7.744;2023-03-01T15:36:48;10.90;;;4.35;;
28431;SDS011;15664;51.302;7.744;2023-03-01T15:39:50;13.25;;;4.57;;
28431;SDS011;15664;51.302;7.744;2023-03-01T15:50:58;11.95;;;4.28;;
28431;SDS011;15664;51.302;7.744;2023-03-01T15:53:24;11.90;;;3.92;;
28431;SDS011;15664;51.302;7.744;2023-03-01T15:55:53;12.15;;;4.13;;
28431;SDS011;15664;51.302;7.744;2023-03-01T15:58:22;10.07;;;4.13;;
28431;SDS011;15664;51.302;7.744;2023-03-01T16:00:49;9.38;;;4.55;;
28431;SDS011;15664;51.302;7.744;2023-03-01T16:03:21;12.25;;;4.18;;
28431;SDS011;15664;51.302;7.744;2023-03-01T16:05:48;10.47;;;3.90;;
28431;SDS011;15664;51.302;7.744;2023-03-01T16:08:15;9.35;;;4.25;;
28431;SDS011;15664;51.302;7.744;2023-03-01T16:10:41;13.32;;;4.60;;
28431;SDS011;15664;51.302;7.744;2023-03-01T16:13:11;11.50;;;4.18;;
28431;SDS011;15664;51.302;7.744;2023-03-01T16:15:37;10.68;;;4.50;;
28431;SDS011;15664;51.302;7.744;2023-03-01T16:18:04;10.30;;;4.13;;
28431;SDS011;15664;51.302;7.744;2023-03-01T16:20:35;10.75;;;4.18;;
28431;SDS011;15664;51.302;7.744;2023-03-01T16:23:02;10.98;;;3.95;;
28431;SDS011;15664;51.302;7.744;2023-03-01T16:25:29;14.57;;;4.35;;
28431;SDS011;15664;51.302;7.744;2023-03-01T16:27:55;11.17;;;4.50;;
28431;SDS011;15664;51.302;7.744;2023-03-01T16:30:21;8.60;;;4.20;;
28431;SDS011;15664;51.302;7.744;2023-03-01T16:32:48;12.25;;;4.53;;
28431;SDS011;15664;51.302;7.744;2023-03-01T16:35:15;11.48;;;4.22;;